KAFW

Fort Worth Alliance Airport

Fort Worth, Texas, USA
METAR KAFW 241953Z 30012G18KT 10SM SCT016 BKN250 14/10 A2987 RMK AO2 SLP115 T01390100 $
Observed Flight Rules
Feb-24 @ 19:53 UTC (20 minutes ago) Visual Flight Rules
Wind Visibility Clouds
300° at 12 knots
 Gusting to 18 knots
10 miles
  • Scattered at 1,600' AGL
  • Broken at 25,000' AGL
Temperatures Readings
Current 14°C / 57°F
Dewpoint 10°C / 50°F
Humidity 77%
Altimeter 29.87" Hg
Pressure 1011.5 hPa
Elevation 233
METAR KAFW 241953Z 30012G18KT 10SM SCT016 BKN250 14/10 A2987 RMK AO2 SLP115 T01390100 $
Observed Flight Rules
Feb-24 @ 19:53 UTC
(20 minutes ago)
VFR
Wind Visibility
300° at 12 knots
 Gusting to 18 knots
10 miles
Clouds
  • Scattered at 1,600' AGL
  • Broken at 25,000' AGL
Temperature Dewpoint
14°C / 57°F 10°C / 50°F
Humidity Altimeter Pressure
77% 29.87" Hg 1011.5 hPa